sensor_id;sensor_type;location;lat;lon;timestamp;P1;durP1;ratioP1;P2;durP2;ratioP2
52104;SDS011;38103;42.776;23.112;2023-01-29T00:01:59;24.05;;;10.32;;
52104;SDS011;38103;42.776;23.112;2023-01-29T00:04:24;20.83;;;10.20;;
52104;SDS011;38103;42.776;23.112;2023-01-29T00:06:49;23.63;;;11.38;;
52104;SDS011;38103;42.776;23.112;2023-01-29T00:09:15;23.63;;;10.82;;
52104;SDS011;38103;42.776;23.112;2023-01-29T00:11:40;21.80;;;10.23;;
52104;SDS011;38103;42.776;23.112;2023-01-29T00:14:06;24.60;;;11.55;;
52104;SDS011;38103;42.776;23.112;2023-01-29T00:16:32;21.80;;;10.65;;
52104;SDS011;38103;42.776;23.112;2023-01-29T00:18:57;25.75;;;11.35;;
52104;SDS011;38103;42.776;23.112;2023-01-29T00:21:22;24.77;;;10.85;;
52104;SDS011;38103;42.776;23.112;2023-01-29T00:23:49;22.17;;;10.50;;
52104;SDS011;38103;42.776;23.112;2023-01-29T00:26:14;21.90;;;10.38;;
52104;SDS011;38103;42.776;23.112;2023-01-29T00:28:40;23.98;;;11.25;;
52104;SDS011;38103;42.776;23.112;2023-01-29T00:31:09;22.92;;;10.68;;
52104;SDS011;38103;42.776;23.112;2023-01-29T00:33:37;24.67;;;10.68;;
52104;SDS011;38103;42.776;23.112;2023-01-29T00:36:05;23.30;;;10.82;;
52104;SDS011;38103;42.776;23.112;2023-01-29T00:38:34;24.85;;;9.88;;
52104;SDS011;38103;42.776;23.112;2023-01-29T00:41:06;24.88;;;10.77;;
52104;SDS011;38103;42.776;23.112;2023-01-29T00:43:51;25.13;;;10.23;;
52104;SDS011;38103;42.776;23.112;2023-01-29T00:46:35;21.45;;;9.60;;
52104;SDS011;38103;42.776;23.112;2023-01-29T00:49:00;25.52;;;11.23;;
52104;SDS011;38103;42.776;23.112;2023-01-29T00:51:26;20.85;;;9.93;;
52104;SDS011;38103;42.776;23.112;2023-01-29T00:53:52;21.60;;;10.45;;
52104;SDS011;38103;42.776;23.112;2023-01-29T00:56:22;20.17;;;10.35;;
52104;SDS011;38103;42.776;23.112;2023-01-29T00:58:50;24.10;;;11.02;;
52104;SDS011;38103;42.776;23.112;2023-01-29T01:01:16;22.55;;;9.82;;
52104;SDS011;38103;42.776;23.112;2023-01-29T01:03:41;22.08;;;9.95;;
52104;SDS011;38103;42.776;23.112;2023-01-29T01:06:08;21.13;;;10.10;;
52104;SDS011;38103;42.776;23.112;2023-01-29T01:08:34;22.13;;;9.70;;
52104;SDS011;38103;42.776;23.112;2023-01-29T01:11:18;22.02;;;10.48;;
52104;SDS011;38103;42.776;23.112;2023-01-29T01:13:44;18.92;;;9.68;;
52104;SDS011;38103;42.776;23.112;2023-01-29T01:16:10;21.77;;;10.52;;
52104;SDS011;38103;42.776;23.112;2023-01-29T01:18:36;21.10;;;10.52;;
52104;SDS011;38103;42.776;23.112;2023-01-29T01:21:02;21.98;;;9.88;;
52104;SDS011;38103;42.776;23.112;2023-01-29T01:23:28;21.05;;;10.07;;
52104;SDS011;38103;42.776;23.112;2023-01-29T01:25:53;20.58;;;9.90;;
52104;SDS011;38103;42.776;23.112;2023-01-29T01:28:19;24.10;;;11.80;;
52104;SDS011;38103;42.776;23.112;2023-01-29T01:30:45;22.75;;;10.55;;
52104;SDS011;38103;42.776;23.112;2023-01-29T01:33:11;24.05;;;11.02;;
52104;SDS011;38103;42.776;23.112;2023-01-29T01:35:37;23.83;;;10.95;;
52104;SDS011;38103;42.776;23.112;2023-01-29T01:38:03;23.55;;;10.70;;
52104;SDS011;38103;42.776;23.112;2023-01-29T01:40:28;23.73;;;10.02;;
52104;SDS011;38103;42.776;23.112;2023-01-29T01:42:57;20.63;;;9.75;;
52104;SDS011;38103;42.776;23.112;2023-01-29T01:45:27;21.05;;;9.80;;
52104;SDS011;38103;42.776;23.112;2023-01-29T01:48:18;22.58;;;10.30;;
52104;SDS011;38103;42.776;23.112;2023-01-29T01:51:00;18.80;;;10.43;;
52104;SDS011;38103;42.776;23.112;2023-01-29T01:53:38;21.10;;;9.65;;
52104;SDS011;38103;42.776;23.112;2023-01-29T01:56:09;22.77;;;10.38;;
52104;SDS011;38103;42.776;23.112;2023-01-29T01:58:39;23.38;;;10.63;;
52104;SDS011;38103;42.776;23.112;2023-01-29T02:01:14;20.10;;;9.38;;
52104;SDS011;38103;42.776;23.112;2023-01-29T02:03:49;21.33;;;10.20;;
52104;SDS011;38103;42.776;23.112;2023-01-29T02:06:48;21.35;;;9.85;;
52104;SDS011;38103;42.776;23.112;2023-01-29T02:09:35;22.63;;;11.07;;
52104;SDS011;38103;42.776;23.112;2023-01-29T02:12:09;24.38;;;10.75;;
52104;SDS011;38103;42.776;23.112;2023-01-29T02:14:37;19.92;;;9.70;;
52104;SDS011;38103;42.776;23.112;2023-01-29T02:17:08;20.17;;;9.88;;
52104;SDS011;38103;42.776;23.112;2023-01-29T02:35:34;18.35;;;8.70;;
52104;SDS011;38103;42.776;23.112;2023-01-29T02:41:17;20.25;;;8.75;;
52104;SDS011;38103;42.776;23.112;2023-01-29T02:51:43;17.00;;;8.10;;
52104;SDS011;38103;42.776;23.112;2023-01-29T02:54:17;17.92;;;8.45;;
52104;SDS011;38103;42.776;23.112;2023-01-29T02:56:54;19.92;;;8.75;;
52104;SDS011;38103;42.776;23.112;2023-01-29T02:59:34;19.42;;;8.88;;
52104;SDS011;38103;42.776;23.112;2023-01-29T03:02:07;17.98;;;7.47;;
52104;SDS011;38103;42.776;23.112;2023-01-29T03:04:38;16.58;;;8.07;;
52104;SDS011;38103;42.776;23.112;2023-01-29T03:07:11;16.52;;;7.93;;
52104;SDS011;38103;42.776;23.112;2023-01-29T03:09:47;16.48;;;7.80;;
52104;SDS011;38103;42.776;23.112;2023-01-29T03:12:24;18.42;;;8.70;;
52104;SDS011;38103;42.776;23.112;2023-01-29T03:14:58;14.95;;;7.85;;
52104;SDS011;38103;42.776;23.112;2023-01-29T03:17:44;16.05;;;7.57;;
52104;SDS011;38103;42.776;23.112;2023-01-29T03:20:16;18.42;;;8.00;;
52104;SDS011;38103;42.776;23.112;2023-01-29T03:22:46;15.82;;;8.00;;
52104;SDS011;38103;42.776;23.112;2023-01-29T03:25:16;15.23;;;7.20;;
52104;SDS011;38103;42.776;23.112;2023-01-29T03:28:01;17.40;;;8.30;;
52104;SDS011;38103;42.776;23.112;2023-01-29T03:30:59;16.60;;;7.93;;
52104;SDS011;38103;42.776;23.112;2023-01-29T03:33:51;17.27;;;7.55;;
52104;SDS011;38103;42.776;23.112;2023-01-29T03:36:28;16.95;;;8.40;;
52104;SDS011;38103;42.776;23.112;2023-01-29T03:39:05;18.88;;;8.55;;
52104;SDS011;38103;42.776;23.112;2023-01-29T03:44:37;16.73;;;7.43;;
52104;SDS011;38103;42.776;23.112;2023-01-29T03:47:17;15.23;;;7.28;;
52104;SDS011;38103;42.776;23.112;2023-01-29T03:55:19;15.48;;;7.35;;
52104;SDS011;38103;42.776;23.112;2023-01-29T04:00:30;17.35;;;7.88;;
52104;SDS011;38103;42.776;23.112;2023-01-29T04:05:39;15.43;;;7.38;;
52104;SDS011;38103;42.776;23.112;2023-01-29T04:08:10;16.98;;;7.68;;
52104;SDS011;38103;42.776;23.112;2023-01-29T04:10:40;17.13;;;7.75;;
52104;SDS011;38103;42.776;23.112;2023-01-29T04:13:09;15.95;;;7.47;;
52104;SDS011;38103;42.776;23.112;2023-01-29T04:15:39;16.33;;;7.65;;
52104;SDS011;38103;42.776;23.112;2023-01-29T04:18:10;15.05;;;7.45;;
52104;SDS011;38103;42.776;23.112;2023-01-29T04:20:35;17.23;;;7.90;;
52104;SDS011;38103;42.776;23.112;2023-01-29T04:23:01;15.25;;;6.90;;
52104;SDS011;38103;42.776;23.112;2023-01-29T04:25:30;13.65;;;6.80;;
52104;SDS011;38103;42.776;23.112;2023-01-29T04:33:28;14.90;;;7.18;;
52104;SDS011;38103;42.776;23.112;2023-01-29T04:36:07;16.13;;;7.13;;
52104;SDS011;38103;42.776;23.112;2023-01-29T04:41:08;15.10;;;6.53;;
52104;SDS011;38103;42.776;23.112;2023-01-29T04:46:47;14.25;;;6.50;;
52104;SDS011;38103;42.776;23.112;2023-01-29T04:49:34;15.50;;;6.78;;
52104;SDS011;38103;42.776;23.112;2023-01-29T05:00:12;13.32;;;6.25;;
52104;SDS011;38103;42.776;23.112;2023-01-29T05:02:43;16.70;;;7.25;;
52104;SDS011;38103;42.776;23.112;2023-01-29T05:05:09;16.95;;;7.10;;
52104;SDS011;38103;42.776;23.112;2023-01-29T05:07:37;14.55;;;6.93;;
52104;SDS011;38103;42.776;23.112;2023-01-29T05:10:04;15.25;;;7.10;;
52104;SDS011;38103;42.776;23.112;2023-01-29T05:12:32;15.27;;;7.13;;
52104;SDS011;38103;42.776;23.112;2023-01-29T05:15:00;13.98;;;6.90;;
52104;SDS011;38103;42.776;23.112;2023-01-29T05:17:27;13.75;;;6.70;;
52104;SDS011;38103;42.776;23.112;2023-01-29T05:19:54;14.75;;;7.00;;
52104;SDS011;38103;42.776;23.112;2023-01-29T05:22:20;14.85;;;7.22;;
52104;SDS011;38103;42.776;23.112;2023-01-29T05:24:47;15.98;;;7.05;;
52104;SDS011;38103;42.776;23.112;2023-01-29T05:27:18;14.18;;;6.35;;
52104;SDS011;38103;42.776;23.112;2023-01-29T05:30:03;14.00;;;6.25;;
52104;SDS011;38103;42.776;23.112;2023-01-29T05:32:29;14.35;;;6.93;;
52104;SDS011;38103;42.776;23.112;2023-01-29T05:34:55;16.38;;;7.28;;
52104;SDS011;38103;42.776;23.112;2023-01-29T05:37:20;15.93;;;7.20;;
52104;SDS011;38103;42.776;23.112;2023-01-29T05:39:45;13.70;;;6.80;;
52104;SDS011;38103;42.776;23.112;2023-01-29T05:42:11;17.35;;;7.97;;
52104;SDS011;38103;42.776;23.112;2023-01-29T05:44:36;17.40;;;7.93;;
52104;SDS011;38103;42.776;23.112;2023-01-29T05:47:01;18.60;;;8.32;;
52104;SDS011;38103;42.776;23.112;2023-01-29T05:49:27;16.25;;;8.23;;
52104;SDS011;38103;42.776;23.112;2023-01-29T05:51:52;18.90;;;7.90;;
52104;SDS011;38103;42.776;23.112;2023-01-29T05:54:18;17.58;;;8.45;;
52104;SDS011;38103;42.776;23.112;2023-01-29T05:56:43;18.80;;;9.05;;
52104;SDS011;38103;42.776;23.112;2023-01-29T05:59:08;19.95;;;8.75;;
52104;SDS011;38103;42.776;23.112;2023-01-29T06:01:34;19.73;;;9.10;;
52104;SDS011;38103;42.776;23.112;2023-01-29T06:03:59;19.15;;;9.82;;
52104;SDS011;38103;42.776;23.112;2023-01-29T06:06:25;18.30;;;8.85;;
52104;SDS011;38103;42.776;23.112;2023-01-29T06:08:51;20.13;;;9.20;;
52104;SDS011;38103;42.776;23.112;2023-01-29T06:11:16;20.08;;;8.98;;
52104;SDS011;38103;42.776;23.112;2023-01-29T06:13:42;20.38;;;8.85;;
52104;SDS011;38103;42.776;23.112;2023-01-29T06:16:09;17.70;;;8.80;;
52104;SDS011;38103;42.776;23.112;2023-01-29T06:18:36;19.75;;;9.13;;
52104;SDS011;38103;42.776;23.112;2023-01-29T06:21:03;19.33;;;8.80;;
52104;SDS011;38103;42.776;23.112;2023-01-29T06:23:30;19.42;;;9.27;;
52104;SDS011;38103;42.776;23.112;2023-01-29T06:26:02;21.45;;;9.15;;
52104;SDS011;38103;42.776;23.112;2023-01-29T06:28:28;21.95;;;9.82;;
52104;SDS011;38103;42.776;23.112;2023-01-29T06:30:57;18.85;;;9.40;;
52104;SDS011;38103;42.776;23.112;2023-01-29T06:33:26;19.10;;;9.37;;
52104;SDS011;38103;42.776;23.112;2023-01-29T06:35:59;18.42;;;8.60;;
52104;SDS011;38103;42.776;23.112;2023-01-29T06:38:27;21.52;;;9.73;;
52104;SDS011;38103;42.776;23.112;2023-01-29T06:40:53;21.30;;;9.05;;
52104;SDS011;38103;42.776;23.112;2023-01-29T06:43:19;19.35;;;9.50;;
52104;SDS011;38103;42.776;23.112;2023-01-29T06:45:51;21.52;;;9.38;;
52104;SDS011;38103;42.776;23.112;2023-01-29T06:48:19;16.83;;;8.93;;
52104;SDS011;38103;42.776;23.112;2023-01-29T06:50:45;20.80;;;10.07;;
52104;SDS011;38103;42.776;23.112;2023-01-29T06:53:10;19.45;;;9.13;;
52104;SDS011;38103;42.776;23.112;2023-01-29T06:55:36;22.10;;;9.55;;
52104;SDS011;38103;42.776;23.112;2023-01-29T06:58:05;18.10;;;8.80;;
52104;SDS011;38103;42.776;23.112;2023-01-29T07:00:32;19.10;;;9.82;;
52104;SDS011;38103;42.776;23.112;2023-01-29T07:02:59;19.35;;;10.02;;
52104;SDS011;38103;42.776;23.112;2023-01-29T07:05:24;21.67;;;10.00;;
52104;SDS011;38103;42.776;23.112;2023-01-29T07:07:49;19.77;;;8.90;;
52104;SDS011;38103;42.776;23.112;2023-01-29T07:10:15;20.20;;;9.63;;
52104;SDS011;38103;42.776;23.112;2023-01-29T07:12:40;19.15;;;9.05;;
52104;SDS011;38103;42.776;23.112;2023-01-29T07:15:06;21.52;;;10.25;;
52104;SDS011;38103;42.776;23.112;2023-01-29T07:17:32;20.65;;;10.25;;
52104;SDS011;38103;42.776;23.112;2023-01-29T07:19:57;19.27;;;9.70;;
52104;SDS011;38103;42.776;23.112;2023-01-29T07:22:22;21.88;;;9.88;;
52104;SDS011;38103;42.776;23.112;2023-01-29T07:24:48;22.77;;;9.40;;
52104;SDS011;38103;42.776;23.112;2023-01-29T07:27:13;19.48;;;9.10;;
52104;SDS011;38103;42.776;23.112;2023-01-29T07:29:39;20.27;;;9.00;;
52104;SDS011;38103;42.776;23.112;2023-01-29T07:32:04;21.60;;;9.60;;
52104;SDS011;38103;42.776;23.112;2023-01-29T07:34:29;20.70;;;9.38;;
52104;SDS011;38103;42.776;23.112;2023-01-29T07:36:55;18.05;;;9.40;;
52104;SDS011;38103;42.776;23.112;2023-01-29T07:39:21;19.85;;;9.20;;
52104;SDS011;38103;42.776;23.112;2023-01-29T07:41:46;20.88;;;9.55;;
52104;SDS011;38103;42.776;23.112;2023-01-29T07:44:12;19.08;;;8.60;;
52104;SDS011;38103;42.776;23.112;2023-01-29T07:46:37;20.45;;;9.38;;
52104;SDS011;38103;42.776;23.112;2023-01-29T07:49:03;18.48;;;9.45;;
52104;SDS011;38103;42.776;23.112;2023-01-29T07:51:28;22.08;;;10.00;;
52104;SDS011;38103;42.776;23.112;2023-01-29T07:53:53;21.20;;;9.57;;
52104;SDS011;38103;42.776;23.112;2023-01-29T07:56:19;21.23;;;9.90;;
52104;SDS011;38103;42.776;23.112;2023-01-29T07:58:44;21.08;;;10.48;;
52104;SDS011;38103;42.776;23.112;2023-01-29T08:01:09;21.55;;;10.15;;
52104;SDS011;38103;42.776;23.112;2023-01-29T08:03:35;22.77;;;10.68;;
52104;SDS011;38103;42.776;23.112;2023-01-29T08:06:01;24.92;;;10.48;;
52104;SDS011;38103;42.776;23.112;2023-01-29T08:08:28;24.20;;;10.57;;
52104;SDS011;38103;42.776;23.112;2023-01-29T08:10:53;18.83;;;10.30;;
52104;SDS011;38103;42.776;23.112;2023-01-29T08:13:18;20.48;;;10.43;;
52104;SDS011;38103;42.776;23.112;2023-01-29T08:15:44;19.75;;;9.68;;
52104;SDS011;38103;42.776;23.112;2023-01-29T08:18:10;21.77;;;10.48;;
52104;SDS011;38103;42.776;23.112;2023-01-29T08:20:36;20.65;;;10.15;;
52104;SDS011;38103;42.776;23.112;2023-01-29T08:23:03;21.52;;;10.75;;
52104;SDS011;38103;42.776;23.112;2023-01-29T08:25:31;22.73;;;11.57;;
52104;SDS011;38103;42.776;23.112;2023-01-29T08:27:57;23.20;;;10.52;;
52104;SDS011;38103;42.776;23.112;2023-01-29T08:30:26;22.58;;;11.68;;
52104;SDS011;38103;42.776;23.112;2023-01-29T08:32:53;24.25;;;11.52;;
52104;SDS011;38103;42.776;23.112;2023-01-29T08:35:19;21.35;;;10.18;;
52104;SDS011;38103;42.776;23.112;2023-01-29T08:37:50;24.13;;;11.75;;
52104;SDS011;38103;42.776;23.112;2023-01-29T08:40:24;24.48;;;11.57;;
52104;SDS011;38103;42.776;23.112;2023-01-29T08:42:49;26.48;;;11.48;;
52104;SDS011;38103;42.776;23.112;2023-01-29T08:45:15;22.65;;;11.30;;
52104;SDS011;38103;42.776;23.112;2023-01-29T08:47:47;23.30;;;11.18;;
52104;SDS011;38103;42.776;23.112;2023-01-29T08:50:14;27.02;;;11.35;;
52104;SDS011;38103;42.776;23.112;2023-01-29T08:52:41;23.13;;;11.25;;
52104;SDS011;38103;42.776;23.112;2023-01-29T08:55:06;25.05;;;11.32;;
52104;SDS011;38103;42.776;23.112;2023-01-29T08:57:32;22.67;;;11.07;;
52104;SDS011;38103;42.776;23.112;2023-01-29T08:59:58;26.83;;;11.63;;
52104;SDS011;38103;42.776;23.112;2023-01-29T09:02:23;27.25;;;12.45;;
52104;SDS011;38103;42.776;23.112;2023-01-29T09:04:48;23.80;;;10.38;;
52104;SDS011;38103;42.776;23.112;2023-01-29T09:07:14;23.70;;;11.57;;
52104;SDS011;38103;42.776;23.112;2023-01-29T09:09:39;26.00;;;12.80;;
52104;SDS011;38103;42.776;23.112;2023-01-29T09:12:04;24.67;;;12.10;;
52104;SDS011;38103;42.776;23.112;2023-01-29T09:14:30;22.92;;;11.32;;
52104;SDS011;38103;42.776;23.112;2023-01-29T09:16:56;24.52;;;11.80;;
52104;SDS011;38103;42.776;23.112;2023-01-29T09:19:22;22.63;;;11.20;;
52104;SDS011;38103;42.776;23.112;2023-01-29T09:21:47;25.38;;;12.43;;
52104;SDS011;38103;42.776;23.112;2023-01-29T09:24:13;23.08;;;11.57;;
52104;SDS011;38103;42.776;23.112;2023-01-29T09:26:39;25.42;;;12.13;;
52104;SDS011;38103;42.776;23.112;2023-01-29T09:29:04;25.77;;;13.13;;
52104;SDS011;38103;42.776;23.112;2023-01-29T09:31:30;25.50;;;12.25;;
52104;SDS011;38103;42.776;23.112;2023-01-29T09:33:56;25.40;;;11.85;;
52104;SDS011;38103;42.776;23.112;2023-01-29T09:36:21;25.92;;;12.13;;
52104;SDS011;38103;42.776;23.112;2023-01-29T09:38:46;26.83;;;12.60;;
52104;SDS011;38103;42.776;23.112;2023-01-29T09:41:19;25.65;;;12.15;;
52104;SDS011;38103;42.776;23.112;2023-01-29T09:49:30;28.58;;;12.02;;
52104;SDS011;38103;42.776;23.112;2023-01-29T09:52:04;29.85;;;13.82;;
52104;SDS011;38103;42.776;23.112;2023-01-29T09:57:46;31.63;;;13.80;;
52104;SDS011;38103;42.776;23.112;2023-01-29T10:00:17;33.70;;;13.85;;
52104;SDS011;38103;42.776;23.112;2023-01-29T10:08:11;28.50;;;13.50;;
52104;SDS011;38103;42.776;23.112;2023-01-29T10:13:20;29.77;;;13.13;;
52104;SDS011;38103;42.776;23.112;2023-01-29T10:25:44;36.67;;;15.57;;
52104;SDS011;38103;42.776;23.112;2023-01-29T10:28:15;28.65;;;13.38;;
52104;SDS011;38103;42.776;23.112;2023-01-29T10:30:49;32.85;;;15.07;;
52104;SDS011;38103;42.776;23.112;2023-01-29T10:34:01;32.10;;;15.48;;
52104;SDS011;38103;42.776;23.112;2023-01-29T10:36:15;30.70;;;13.80;;
52104;SDS011;38103;42.776;23.112;2023-01-29T10:38:45;33.72;;;14.18;;
52104;SDS011;38103;42.776;23.112;2023-01-29T10:55:19;35.00;;;14.43;;
52104;SDS011;38103;42.776;23.112;2023-01-29T11:00:46;36.95;;;15.85;;
52104;SDS011;38103;42.776;23.112;2023-01-29T11:03:22;34.35;;;16.20;;
52104;SDS011;38103;42.776;23.112;2023-01-29T11:08:52;34.33;;;15.75;;
52104;SDS011;38103;42.776;23.112;2023-01-29T11:11:21;33.35;;;15.88;;
52104;SDS011;38103;42.776;23.112;2023-01-29T11:14:00;35.33;;;16.67;;
52104;SDS011;38103;42.776;23.112;2023-01-29T11:16:43;28.70;;;14.38;;
52104;SDS011;38103;42.776;23.112;2023-01-29T11:19:10;31.52;;;14.48;;
52104;SDS011;38103;42.776;23.112;2023-01-29T11:21:50;30.65;;;14.60;;
52104;SDS011;38103;42.776;23.112;2023-01-29T11:24:23;30.85;;;14.55;;
52104;SDS011;38103;42.776;23.112;2023-01-29T11:26:49;30.33;;;15.07;;
52104;SDS011;38103;42.776;23.112;2023-01-29T11:31:54;32.17;;;14.77;;
52104;SDS011;38103;42.776;23.112;2023-01-29T11:34:22;28.90;;;14.95;;
52104;SDS011;38103;42.776;23.112;2023-01-29T11:36:58;30.40;;;14.15;;
52104;SDS011;38103;42.776;23.112;2023-01-29T11:39:26;30.15;;;14.65;;
52104;SDS011;38103;42.776;23.112;2023-01-29T11:41:59;31.60;;;14.50;;
52104;SDS011;38103;42.776;23.112;2023-01-29T11:46:53;29.80;;;14.68;;
52104;SDS011;38103;42.776;23.112;2023-01-29T11:49:28;29.00;;;14.52;;
52104;SDS011;38103;42.776;23.112;2023-01-29T11:51:58;28.35;;;13.77;;
52104;SDS011;38103;42.776;23.112;2023-01-29T11:54:28;28.92;;;14.13;;
52104;SDS011;38103;42.776;23.112;2023-01-29T11:56:58;30.27;;;13.60;;
52104;SDS011;38103;42.776;23.112;2023-01-29T12:02:05;29.00;;;13.98;;
52104;SDS011;38103;42.776;23.112;2023-01-29T12:04:40;28.52;;;13.18;;
52104;SDS011;38103;42.776;23.112;2023-01-29T12:07:10;28.70;;;14.30;;
52104;SDS011;38103;42.776;23.112;2023-01-29T12:09:37;28.70;;;14.23;;
52104;SDS011;38103;42.776;23.112;2023-01-29T12:12:16;26.38;;;13.85;;
52104;SDS011;38103;42.776;23.112;2023-01-29T12:15:01;27.73;;;13.85;;
52104;SDS011;38103;42.776;23.112;2023-01-29T12:17:39;28.65;;;14.18;;
52104;SDS011;38103;42.776;23.112;2023-01-29T12:20:13;28.40;;;13.57;;
52104;SDS011;38103;42.776;23.112;2023-01-29T12:28:18;27.58;;;13.38;;
52104;SDS011;38103;42.776;23.112;2023-01-29T12:33:45;27.50;;;14.05;;
52104;SDS011;38103;42.776;23.112;2023-01-29T12:36:23;29.33;;;15.45;;
52104;SDS011;38103;42.776;23.112;2023-01-29T12:38:52;38.05;;;17.33;;
52104;SDS011;38103;42.776;23.112;2023-01-29T12:44:11;38.47;;;18.35;;
52104;SDS011;38103;42.776;23.112;2023-01-29T12:46:45;39.42;;;18.23;;
52104;SDS011;38103;42.776;23.112;2023-01-29T12:49:29;37.15;;;18.02;;
52104;SDS011;38103;42.776;23.112;2023-01-29T12:52:05;35.33;;;17.42;;
52104;SDS011;38103;42.776;23.112;2023-01-29T12:54:38;34.40;;;16.80;;
52104;SDS011;38103;42.776;23.112;2023-01-29T12:57:14;29.27;;;14.98;;
52104;SDS011;38103;42.776;23.112;2023-01-29T13:00:12;28.23;;;14.50;;
52104;SDS011;38103;42.776;23.112;2023-01-29T13:02:46;27.65;;;13.98;;
52104;SDS011;38103;42.776;23.112;2023-01-29T13:08:06;27.00;;;13.70;;
52104;SDS011;38103;42.776;23.112;2023-01-29T13:10:53;29.02;;;13.70;;
52104;SDS011;38103;42.776;23.112;2023-01-29T13:15:54;30.00;;;14.70;;
52104;SDS011;38103;42.776;23.112;2023-01-29T13:21:05;32.75;;;14.90;;
52104;SDS011;38103;42.776;23.112;2023-01-29T13:23:39;27.98;;;14.55;;
52104;SDS011;38103;42.776;23.112;2023-01-29T13:26:11;29.85;;;14.75;;
52104;SDS011;38103;42.776;23.112;2023-01-29T13:28:37;31.02;;;14.95;;
52104;SDS011;38103;42.776;23.112;2023-01-29T13:33:37;33.55;;;14.75;;
52104;SDS011;38103;42.776;23.112;2023-01-29T13:36:04;31.50;;;14.65;;
52104;SDS011;38103;42.776;23.112;2023-01-29T13:38:39;29.40;;;15.05;;
52104;SDS011;38103;42.776;23.112;2023-01-29T13:41:09;29.83;;;15.73;;
52104;SDS011;38103;42.776;23.112;2023-01-29T13:43:39;33.40;;;14.43;;
52104;SDS011;38103;42.776;23.112;2023-01-29T13:46:13;31.35;;;14.88;;
52104;SDS011;38103;42.776;23.112;2023-01-29T13:48:46;29.35;;;14.48;;
52104;SDS011;38103;42.776;23.112;2023-01-29T13:51:16;32.72;;;15.15;;
52104;SDS011;38103;42.776;23.112;2023-01-29T13:53:56;29.05;;;14.15;;
52104;SDS011;38103;42.776;23.112;2023-01-29T13:58:57;34.50;;;15.88;;
52104;SDS011;38103;42.776;23.112;2023-01-29T14:06:43;32.60;;;16.08;;
52104;SDS011;38103;42.776;23.112;2023-01-29T14:11:54;36.88;;;15.95;;
52104;SDS011;38103;42.776;23.112;2023-01-29T14:17:13;32.13;;;16.00;;
52104;SDS011;38103;42.776;23.112;2023-01-29T14:19:49;38.60;;;16.92;;
52104;SDS011;38103;42.776;23.112;2023-01-29T14:22:19;32.55;;;16.25;;
52104;SDS011;38103;42.776;23.112;2023-01-29T14:24:48;31.80;;;14.35;;
52104;SDS011;38103;42.776;23.112;2023-01-29T14:27:18;33.35;;;16.38;;
52104;SDS011;38103;42.776;23.112;2023-01-29T14:29:46;33.15;;;16.02;;
52104;SDS011;38103;42.776;23.112;2023-01-29T14:45:29;32.97;;;15.38;;
52104;SDS011;38103;42.776;23.112;2023-01-29T14:53:05;30.33;;;15.00;;
52104;SDS011;38103;42.776;23.112;2023-01-29T14:55:46;31.83;;;14.27;;
52104;SDS011;38103;42.776;23.112;2023-01-29T14:58:15;31.13;;;15.80;;
52104;SDS011;38103;42.776;23.112;2023-01-29T15:00:44;32.58;;;15.45;;
52104;SDS011;38103;42.776;23.112;2023-01-29T15:03:21;29.13;;;14.30;;
52104;SDS011;38103;42.776;23.112;2023-01-29T15:05:57;31.95;;;15.90;;
52104;SDS011;38103;42.776;23.112;2023-01-29T15:11:02;34.10;;;15.68;;
52104;SDS011;38103;42.776;23.112;2023-01-29T15:13:59;31.05;;;14.55;;
52104;SDS011;38103;42.776;23.112;2023-01-29T15:19:43;32.55;;;14.90;;
52104;SDS011;38103;42.776;23.112;2023-01-29T15:22:18;28.10;;;14.18;;
52104;SDS011;38103;42.776;23.112;2023-01-29T15:24:46;29.60;;;14.30;;
52104;SDS011;38103;42.776;23.112;2023-01-29T15:27:25;29.02;;;14.27;;
52104;SDS011;38103;42.776;23.112;2023-01-29T15:29:59;30.23;;;14.13;;
52104;SDS011;38103;42.776;23.112;2023-01-29T15:32:35;32.70;;;16.98;;
52104;SDS011;38103;42.776;23.112;2023-01-29T15:35:07;35.95;;;17.88;;
52104;SDS011;38103;42.776;23.112;2023-01-29T15:37:59;28.08;;;13.98;;
52104;SDS011;38103;42.776;23.112;2023-01-29T15:40:25;31.60;;;15.10;;
52104;SDS011;38103;42.776;23.112;2023-01-29T15:42:50;30.55;;;14.60;;
52104;SDS011;38103;42.776;23.112;2023-01-29T15:48:00;33.35;;;16.23;;
52104;SDS011;38103;42.776;23.112;2023-01-29T15:50:38;31.13;;;15.75;;
52104;SDS011;38103;42.776;23.112;2023-01-29T15:53:06;31.90;;;14.65;;
52104;SDS011;38103;42.776;23.112;2023-01-29T15:55:45;38.15;;;19.15;;
52104;SDS011;38103;42.776;23.112;2023-01-29T15:58:15;32.47;;;15.88;;
52104;SDS011;38103;42.776;23.112;2023-01-29T16:00:48;35.83;;;16.05;;
52104;SDS011;38103;42.776;23.112;2023-01-29T16:03:19;32.88;;;15.45;;
52104;SDS011;38103;42.776;23.112;2023-01-29T16:05:47;30.23;;;15.07;;
52104;SDS011;38103;42.776;23.112;2023-01-29T16:08:14;29.50;;;13.93;;
52104;SDS011;38103;42.776;23.112;2023-01-29T16:10:40;32.90;;;15.20;;
52104;SDS011;38103;42.776;23.112;2023-01-29T16:13:25;29.20;;;13.63;;
52104;SDS011;38103;42.776;23.112;2023-01-29T16:16:00;32.72;;;15.65;;
52104;SDS011;38103;42.776;23.112;2023-01-29T16:18:32;29.77;;;13.75;;
52104;SDS011;38103;42.776;23.112;2023-01-29T16:21:13;33.88;;;13.68;;
52104;SDS011;38103;42.776;23.112;2023-01-29T16:23:41;30.20;;;15.10;;
52104;SDS011;38103;42.776;23.112;2023-01-29T16:26:16;28.90;;;15.23;;
52104;SDS011;38103;42.776;23.112;2023-01-29T16:28:46;27.45;;;14.38;;
52104;SDS011;38103;42.776;23.112;2023-01-29T16:31:12;29.92;;;16.17;;
52104;SDS011;38103;42.776;23.112;2023-01-29T16:33:46;37.72;;;18.98;;
52104;SDS011;38103;42.776;23.112;2023-01-29T16:36:17;34.83;;;17.00;;
52104;SDS011;38103;42.776;23.112;2023-01-29T16:38:46;34.45;;;16.98;;
52104;SDS011;38103;42.776;23.112;2023-01-29T16:43:46;38.30;;;18.90;;
52104;SDS011;38103;42.776;23.112;2023-01-29T16:48:57;29.95;;;13.82;;
52104;SDS011;38103;42.776;23.112;2023-01-29T16:51:24;36.83;;;17.20;;
52104;SDS011;38103;42.776;23.112;2023-01-29T16:56:45;33.47;;;14.75;;
52104;SDS011;38103;42.776;23.112;2023-01-29T16:59:22;32.25;;;14.68;;
52104;SDS011;38103;42.776;23.112;2023-01-29T17:01:56;32.00;;;14.68;;
52104;SDS011;38103;42.776;23.112;2023-01-29T17:04:22;38.75;;;15.50;;
52104;SDS011;38103;42.776;23.112;2023-01-29T17:06:49;34.78;;;16.85;;
52104;SDS011;38103;42.776;23.112;2023-01-29T17:09:21;29.70;;;14.60;;
52104;SDS011;38103;42.776;23.112;2023-01-29T17:11:55;30.65;;;14.45;;
52104;SDS011;38103;42.776;23.112;2023-01-29T17:14:23;34.17;;;15.40;;
52104;SDS011;38103;42.776;23.112;2023-01-29T17:16:54;31.77;;;13.48;;
52104;SDS011;38103;42.776;23.112;2023-01-29T17:19:25;40.20;;;16.70;;
52104;SDS011;38103;42.776;23.112;2023-01-29T17:21:51;34.40;;;15.95;;
52104;SDS011;38103;42.776;23.112;2023-01-29T17:24:16;37.22;;;16.45;;
52104;SDS011;38103;42.776;23.112;2023-01-29T17:26:41;40.95;;;20.13;;
52104;SDS011;38103;42.776;23.112;2023-01-29T17:29:10;38.08;;;18.05;;
52104;SDS011;38103;42.776;23.112;2023-01-29T17:31:39;37.97;;;16.92;;
52104;SDS011;38103;42.776;23.112;2023-01-29T17:34:11;33.33;;;16.08;;
52104;SDS011;38103;42.776;23.112;2023-01-29T17:36:39;34.00;;;14.93;;